sensor_id;sensor_type;location;lat;lon;timestamp;P1;durP1;ratioP1;P2;durP2;ratioP2
59040;SDS011;44825;53.200;6.448;2022-08-11T00:02:28;8.15;;;3.92;;
59040;SDS011;44825;53.200;6.448;2022-08-11T00:05:01;8.38;;;3.75;;
59040;SDS011;44825;53.200;6.448;2022-08-11T00:07:31;12.00;;;4.83;;
59040;SDS011;44825;53.200;6.448;2022-08-11T00:10:00;7.28;;;5.25;;
59040;SDS011;44825;53.200;6.448;2022-08-11T00:12:29;7.38;;;4.50;;
59040;SDS011;44825;53.200;6.448;2022-08-11T00:14:57;6.38;;;4.10;;
59040;SDS011;44825;53.200;6.448;2022-08-11T00:17:27;6.95;;;4.68;;
59040;SDS011;44825;53.200;6.448;2022-08-11T00:20:01;7.53;;;5.05;;
59040;SDS011;44825;53.200;6.448;2022-08-11T00:22:32;7.63;;;4.53;;
59040;SDS011;44825;53.200;6.448;2022-08-11T00:25:06;7.25;;;4.45;;
59040;SDS011;44825;53.200;6.448;2022-08-11T00:27:37;7.07;;;4.55;;
59040;SDS011;44825;53.200;6.448;2022-08-11T00:30:07;6.80;;;4.22;;
59040;SDS011;44825;53.200;6.448;2022-08-11T00:32:36;8.55;;;4.05;;
59040;SDS011;44825;53.200;6.448;2022-08-11T00:35:05;7.40;;;4.03;;
59040;SDS011;44825;53.200;6.448;2022-08-11T00:37:34;7.03;;;4.55;;
59040;SDS011;44825;53.200;6.448;2022-08-11T00:40:04;6.88;;;4.30;;
59040;SDS011;44825;53.200;6.448;2022-08-11T00:42:44;5.70;;;4.18;;
59040;SDS011;44825;53.200;6.448;2022-08-11T00:45:21;5.53;;;3.53;;
59040;SDS011;44825;53.200;6.448;2022-08-11T00:47:55;7.18;;;4.30;;
59040;SDS011;44825;53.200;6.448;2022-08-11T00:50:34;7.53;;;4.53;;
59040;SDS011;44825;53.200;6.448;2022-08-11T00:59:03;9.93;;;4.68;;
59040;SDS011;44825;53.200;6.448;2022-08-11T01:01:58;8.88;;;4.85;;
59040;SDS011;44825;53.200;6.448;2022-08-11T01:04:50;6.15;;;4.45;;
59040;SDS011;44825;53.200;6.448;2022-08-11T01:11:10;6.43;;;3.80;;
59040;SDS011;44825;53.200;6.448;2022-08-11T01:14:21;5.88;;;3.85;;
59040;SDS011;44825;53.200;6.448;2022-08-11T01:20:22;9.73;;;4.45;;
59040;SDS011;44825;53.200;6.448;2022-08-11T01:39:06;6.63;;;3.80;;
59040;SDS011;44825;53.200;6.448;2022-08-11T01:42:06;6.70;;;3.80;;
59040;SDS011;44825;53.200;6.448;2022-08-11T01:45:25;9.60;;;4.55;;
59040;SDS011;44825;53.200;6.448;2022-08-11T01:47:59;8.05;;;4.95;;
59040;SDS011;44825;53.200;6.448;2022-08-11T01:50:38;9.57;;;5.22;;
59040;SDS011;44825;53.200;6.448;2022-08-11T01:53:23;9.98;;;5.63;;
59040;SDS011;44825;53.200;6.448;2022-08-11T01:56:00;10.35;;;5.25;;
59040;SDS011;44825;53.200;6.448;2022-08-11T01:58:41;7.90;;;5.00;;
59040;SDS011;44825;53.200;6.448;2022-08-11T02:01:31;8.55;;;5.47;;
59040;SDS011;44825;53.200;6.448;2022-08-11T02:04:08;8.18;;;5.43;;
59040;SDS011;44825;53.200;6.448;2022-08-11T02:06:46;9.32;;;5.03;;
59040;SDS011;44825;53.200;6.448;2022-08-11T02:09:25;6.20;;;4.20;;
59040;SDS011;44825;53.200;6.448;2022-08-11T02:12:09;7.65;;;4.85;;
59040;SDS011;44825;53.200;6.448;2022-08-11T02:14:42;7.50;;;4.75;;
59040;SDS011;44825;53.200;6.448;2022-08-11T02:17:16;6.95;;;4.63;;
59040;SDS011;44825;53.200;6.448;2022-08-11T02:19:49;6.93;;;4.45;;
59040;SDS011;44825;53.200;6.448;2022-08-11T02:22:41;6.93;;;4.55;;
59040;SDS011;44825;53.200;6.448;2022-08-11T02:25:37;7.47;;;4.30;;
59040;SDS011;44825;53.200;6.448;2022-08-11T02:28:17;7.18;;;4.45;;
59040;SDS011;44825;53.200;6.448;2022-08-11T02:30:50;7.82;;;4.28;;
59040;SDS011;44825;53.200;6.448;2022-08-11T02:33:40;7.63;;;4.70;;
59040;SDS011;44825;53.200;6.448;2022-08-11T02:36:09;6.57;;;4.53;;
59040;SDS011;44825;53.200;6.448;2022-08-11T02:38:48;6.15;;;3.90;;
59040;SDS011;44825;53.200;6.448;2022-08-11T02:41:24;7.45;;;4.57;;
59040;SDS011;44825;53.200;6.448;2022-08-11T02:44:20;6.75;;;3.80;;
59040;SDS011;44825;53.200;6.448;2022-08-11T02:46:59;7.38;;;4.80;;
59040;SDS011;44825;53.200;6.448;2022-08-11T02:49:35;10.80;;;5.07;;
59040;SDS011;44825;53.200;6.448;2022-08-11T02:52:25;7.30;;;4.50;;
59040;SDS011;44825;53.200;6.448;2022-08-11T02:55:09;7.50;;;4.38;;
59040;SDS011;44825;53.200;6.448;2022-08-11T02:57:48;7.15;;;4.70;;
59040;SDS011;44825;53.200;6.448;2022-08-11T03:00:20;6.65;;;4.55;;
59040;SDS011;44825;53.200;6.448;2022-08-11T03:02:49;6.25;;;3.75;;
59040;SDS011;44825;53.200;6.448;2022-08-11T03:05:32;6.60;;;3.75;;
59040;SDS011;44825;53.200;6.448;2022-08-11T03:08:12;5.93;;;4.20;;
59040;SDS011;44825;53.200;6.448;2022-08-11T03:10:52;7.25;;;4.05;;
59040;SDS011;44825;53.200;6.448;2022-08-11T03:13:48;6.68;;;4.00;;
59040;SDS011;44825;53.200;6.448;2022-08-11T03:16:45;6.95;;;4.13;;
59040;SDS011;44825;53.200;6.448;2022-08-11T03:19:20;7.75;;;4.82;;
59040;SDS011;44825;53.200;6.448;2022-08-11T03:21:55;8.75;;;5.38;;
59040;SDS011;44825;53.200;6.448;2022-08-11T03:24:30;9.60;;;5.43;;
59040;SDS011;44825;53.200;6.448;2022-08-11T03:27:06;9.20;;;5.68;;
59040;SDS011;44825;53.200;6.448;2022-08-11T03:29:39;9.32;;;5.78;;
59040;SDS011;44825;53.200;6.448;2022-08-11T03:32:18;10.40;;;5.28;;
59040;SDS011;44825;53.200;6.448;2022-08-11T03:34:53;9.10;;;5.65;;
59040;SDS011;44825;53.200;6.448;2022-08-11T03:37:27;8.90;;;5.97;;
59040;SDS011;44825;53.200;6.448;2022-08-11T03:40:19;8.10;;;5.60;;
59040;SDS011;44825;53.200;6.448;2022-08-11T03:43:28;10.40;;;5.75;;
59040;SDS011;44825;53.200;6.448;2022-08-11T03:46:13;8.20;;;6.13;;
59040;SDS011;44825;53.200;6.448;2022-08-11T03:48:46;7.30;;;5.22;;
59040;SDS011;44825;53.200;6.448;2022-08-11T03:51:22;6.05;;;2.67;;
59040;SDS011;44825;53.200;6.448;2022-08-11T03:53:59;5.32;;;3.10;;
59040;SDS011;44825;53.200;6.448;2022-08-11T03:56:50;6.72;;;2.47;;
59040;SDS011;44825;53.200;6.448;2022-08-11T04:00:03;4.93;;;2.50;;
59040;SDS011;44825;53.200;6.448;2022-08-11T04:02:52;6.93;;;2.80;;
59040;SDS011;44825;53.200;6.448;2022-08-11T04:11:52;6.55;;;4.15;;
59040;SDS011;44825;53.200;6.448;2022-08-11T04:14:48;6.13;;;4.15;;
59040;SDS011;44825;53.200;6.448;2022-08-11T04:21:09;7.07;;;4.47;;
59040;SDS011;44825;53.200;6.448;2022-08-11T04:23:49;7.22;;;5.00;;
59040;SDS011;44825;53.200;6.448;2022-08-11T04:26:46;6.68;;;4.88;;
59040;SDS011;44825;53.200;6.448;2022-08-11T04:29:54;8.32;;;4.88;;
59040;SDS011;44825;53.200;6.448;2022-08-11T04:32:30;6.43;;;4.38;;
59040;SDS011;44825;53.200;6.448;2022-08-11T04:38:15;6.47;;;3.55;;
59040;SDS011;44825;53.200;6.448;2022-08-11T04:41:19;4.78;;;2.97;;
59040;SDS011;44825;53.200;6.448;2022-08-11T04:47:50;2.88;;;1.60;;
59040;SDS011;44825;53.200;6.448;2022-08-11T04:50:53;1.70;;;1.10;;
59040;SDS011;44825;53.200;6.448;2022-08-11T04:53:55;2.10;;;1.10;;
59040;SDS011;44825;53.200;6.448;2022-08-11T04:56:46;3.47;;;1.23;;
59040;SDS011;44825;53.200;6.448;2022-08-11T04:59:51;3.80;;;2.00;;
59040;SDS011;44825;53.200;6.448;2022-08-11T05:03:02;5.40;;;3.42;;
59040;SDS011;44825;53.200;6.448;2022-08-11T05:09:17;7.70;;;5.28;;
59040;SDS011;44825;53.200;6.448;2022-08-11T05:12:01;9.13;;;5.88;;
59040;SDS011;44825;53.200;6.448;2022-08-11T05:14:44;8.63;;;6.22;;
59040;SDS011;44825;53.200;6.448;2022-08-11T05:17:35;8.18;;;6.15;;
59040;SDS011;44825;53.200;6.448;2022-08-11T05:20:39;9.05;;;6.63;;
59040;SDS011;44825;53.200;6.448;2022-08-11T05:23:31;11.88;;;7.32;;
59040;SDS011;44825;53.200;6.448;2022-08-11T05:26:21;9.38;;;6.40;;
59040;SDS011;44825;53.200;6.448;2022-08-11T05:32:12;14.07;;;7.28;;
59040;SDS011;44825;53.200;6.448;2022-08-11T05:35:00;8.95;;;6.47;;
59040;SDS011;44825;53.200;6.448;2022-08-11T05:37:32;11.32;;;6.47;;
59040;SDS011;44825;53.200;6.448;2022-08-11T05:40:07;9.88;;;5.78;;
59040;SDS011;44825;53.200;6.448;2022-08-11T05:42:56;9.65;;;6.10;;
59040;SDS011;44825;53.200;6.448;2022-08-11T05:45:42;11.85;;;6.18;;
59040;SDS011;44825;53.200;6.448;2022-08-11T05:48:39;10.45;;;6.22;;
59040;SDS011;44825;53.200;6.448;2022-08-11T05:51:31;12.85;;;7.00;;
59040;SDS011;44825;53.200;6.448;2022-08-11T05:54:17;7.68;;;5.53;;
59040;SDS011;44825;53.200;6.448;2022-08-11T05:57:03;12.65;;;6.53;;
59040;SDS011;44825;53.200;6.448;2022-08-11T05:59:32;10.02;;;6.30;;
59040;SDS011;44825;53.200;6.448;2022-08-11T06:02:00;11.20;;;5.45;;
59040;SDS011;44825;53.200;6.448;2022-08-11T06:04:30;8.13;;;6.05;;
59040;SDS011;44825;53.200;6.448;2022-08-11T06:06:59;12.73;;;6.50;;
59040;SDS011;44825;53.200;6.448;2022-08-11T06:09:30;8.40;;;5.85;;
59040;SDS011;44825;53.200;6.448;2022-08-11T06:12:00;8.05;;;5.57;;
59040;SDS011;44825;53.200;6.448;2022-08-11T06:14:30;11.25;;;5.25;;
59040;SDS011;44825;53.200;6.448;2022-08-11T06:17:02;10.80;;;5.40;;
59040;SDS011;44825;53.200;6.448;2022-08-11T06:19:31;11.38;;;5.55;;
59040;SDS011;44825;53.200;6.448;2022-08-11T06:22:01;15.90;;;5.55;;
59040;SDS011;44825;53.200;6.448;2022-08-11T06:24:30;9.85;;;5.25;;
59040;SDS011;44825;53.200;6.448;2022-08-11T06:26:59;9.00;;;5.68;;
59040;SDS011;44825;53.200;6.448;2022-08-11T06:29:28;10.30;;;4.90;;
59040;SDS011;44825;53.200;6.448;2022-08-11T06:31:59;11.60;;;5.05;;
59040;SDS011;44825;53.200;6.448;2022-08-11T06:34:30;8.60;;;4.30;;
59040;SDS011;44825;53.200;6.448;2022-08-11T06:37:09;11.98;;;4.68;;
59040;SDS011;44825;53.200;6.448;2022-08-11T06:39:46;10.02;;;4.65;;
59040;SDS011;44825;53.200;6.448;2022-08-11T06:44:59;7.63;;;3.58;;
59040;SDS011;44825;53.200;6.448;2022-08-11T06:47:34;6.40;;;4.28;;
59040;SDS011;44825;53.200;6.448;2022-08-11T06:50:02;8.43;;;5.05;;
59040;SDS011;44825;53.200;6.448;2022-08-11T06:52:50;6.90;;;3.90;;
59040;SDS011;44825;53.200;6.448;2022-08-11T06:55:20;7.43;;;4.20;;
59040;SDS011;44825;53.200;6.448;2022-08-11T06:58:11;8.27;;;4.35;;
59040;SDS011;44825;53.200;6.448;2022-08-11T07:00:59;8.90;;;4.00;;
59040;SDS011;44825;53.200;6.448;2022-08-11T07:03:34;7.57;;;4.43;;
59040;SDS011;44825;53.200;6.448;2022-08-11T07:06:12;6.80;;;4.30;;
59040;SDS011;44825;53.200;6.448;2022-08-11T07:09:01;6.72;;;4.00;;
59040;SDS011;44825;53.200;6.448;2022-08-11T07:11:59;8.43;;;4.40;;
59040;SDS011;44825;53.200;6.448;2022-08-11T07:14:55;8.82;;;4.60;;
59040;SDS011;44825;53.200;6.448;2022-08-11T07:17:43;8.10;;;4.30;;
59040;SDS011;44825;53.200;6.448;2022-08-11T07:20:15;9.60;;;4.28;;
59040;SDS011;44825;53.200;6.448;2022-08-11T07:23:01;8.65;;;3.58;;
59040;SDS011;44825;53.200;6.448;2022-08-11T07:25:48;7.43;;;3.95;;
59040;SDS011;44825;53.200;6.448;2022-08-11T07:28:36;6.28;;;3.30;;
59040;SDS011;44825;53.200;6.448;2022-08-11T07:31:25;7.00;;;3.42;;
59040;SDS011;44825;53.200;6.448;2022-08-11T07:33:59;6.43;;;3.17;;
59040;SDS011;44825;53.200;6.448;2022-08-11T07:36:39;6.22;;;3.15;;
59040;SDS011;44825;53.200;6.448;2022-08-11T07:39:14;9.13;;;3.80;;
59040;SDS011;44825;53.200;6.448;2022-08-11T07:41:45;6.95;;;3.50;;
59040;SDS011;44825;53.200;6.448;2022-08-11T07:44:13;7.35;;;3.15;;
59040;SDS011;44825;53.200;6.448;2022-08-11T07:46:42;12.15;;;4.22;;
59040;SDS011;44825;53.200;6.448;2022-08-11T07:49:30;6.90;;;4.25;;
59040;SDS011;44825;53.200;6.448;2022-08-11T07:52:20;6.22;;;3.38;;
59040;SDS011;44825;53.200;6.448;2022-08-11T07:55:00;10.15;;;3.80;;
59040;SDS011;44825;53.200;6.448;2022-08-11T07:57:30;10.40;;;3.80;;
59040;SDS011;44825;53.200;6.448;2022-08-11T08:00:16;7.93;;;3.25;;
59040;SDS011;44825;53.200;6.448;2022-08-11T08:03:03;6.13;;;3.35;;
59040;SDS011;44825;53.200;6.448;2022-08-11T08:05:49;7.85;;;3.10;;
59040;SDS011;44825;53.200;6.448;2022-08-11T08:08:36;5.90;;;2.80;;
59040;SDS011;44825;53.200;6.448;2022-08-11T08:11:23;7.28;;;3.08;;
59040;SDS011;44825;53.200;6.448;2022-08-11T08:14:09;7.97;;;3.30;;
59040;SDS011;44825;53.200;6.448;2022-08-11T08:16:55;7.45;;;2.38;;
59040;SDS011;44825;53.200;6.448;2022-08-11T08:19:42;8.00;;;3.00;;
59040;SDS011;44825;53.200;6.448;2022-08-11T08:22:14;5.93;;;2.30;;
59040;SDS011;44825;53.200;6.448;2022-08-11T08:24:44;6.22;;;1.90;;
59040;SDS011;44825;53.200;6.448;2022-08-11T08:27:12;6.95;;;2.28;;
59040;SDS011;44825;53.200;6.448;2022-08-11T08:29:40;5.97;;;2.00;;
59040;SDS011;44825;53.200;6.448;2022-08-11T08:32:27;6.55;;;2.47;;
59040;SDS011;44825;53.200;6.448;2022-08-11T08:34:56;7.18;;;2.17;;
59040;SDS011;44825;53.200;6.448;2022-08-11T08:37:24;4.90;;;2.00;;
59040;SDS011;44825;53.200;6.448;2022-08-11T08:39:54;8.30;;;2.50;;
59040;SDS011;44825;53.200;6.448;2022-08-11T08:42:24;7.28;;;2.17;;
59040;SDS011;44825;53.200;6.448;2022-08-11T08:44:58;5.07;;;1.80;;
59040;SDS011;44825;53.200;6.448;2022-08-11T08:47:30;8.02;;;1.98;;
59040;SDS011;44825;53.200;6.448;2022-08-11T08:50:05;6.53;;;1.92;;
59040;SDS011;44825;53.200;6.448;2022-08-11T08:52:36;5.30;;;1.60;;
59040;SDS011;44825;53.200;6.448;2022-08-11T08:55:11;4.82;;;1.70;;
59040;SDS011;44825;53.200;6.448;2022-08-11T08:57:44;5.38;;;1.90;;
59040;SDS011;44825;53.200;6.448;2022-08-11T09:00:14;10.23;;;1.80;;
59040;SDS011;44825;53.200;6.448;2022-08-11T09:02:42;5.15;;;1.17;;
59040;SDS011;44825;53.200;6.448;2022-08-11T09:05:13;4.03;;;1.75;;
59040;SDS011;44825;53.200;6.448;2022-08-11T09:07:46;4.25;;;1.30;;
59040;SDS011;44825;53.200;6.448;2022-08-11T09:10:17;8.70;;;1.45;;
59040;SDS011;44825;53.200;6.448;2022-08-11T09:12:45;4.03;;;1.33;;
59040;SDS011;44825;53.200;6.448;2022-08-11T09:15:14;4.28;;;1.58;;
59040;SDS011;44825;53.200;6.448;2022-08-11T09:17:43;5.85;;;1.50;;
59040;SDS011;44825;53.200;6.448;2022-08-11T09:20:12;4.32;;;1.50;;
59040;SDS011;44825;53.200;6.448;2022-08-11T09:22:43;3.97;;;1.30;;
59040;SDS011;44825;53.200;6.448;2022-08-11T09:25:32;7.85;;;1.52;;
59040;SDS011;44825;53.200;6.448;2022-08-11T09:28:19;3.90;;;1.77;;
59040;SDS011;44825;53.200;6.448;2022-08-11T09:30:48;4.50;;;1.67;;
59040;SDS011;44825;53.200;6.448;2022-08-11T09:33:19;6.78;;;1.85;;
59040;SDS011;44825;53.200;6.448;2022-08-11T09:35:49;2.63;;;1.33;;
59040;SDS011;44825;53.200;6.448;2022-08-11T09:38:18;4.40;;;1.73;;
59040;SDS011;44825;53.200;6.448;2022-08-11T09:41:07;6.88;;;1.75;;
59040;SDS011;44825;53.200;6.448;2022-08-11T09:43:39;5.18;;;1.52;;
59040;SDS011;44825;53.200;6.448;2022-08-11T09:46:29;5.10;;;1.35;;
59040;SDS011;44825;53.200;6.448;2022-08-11T09:48:59;4.80;;;1.60;;
59040;SDS011;44825;53.200;6.448;2022-08-11T09:51:28;3.63;;;1.38;;
59040;SDS011;44825;53.200;6.448;2022-08-11T09:53:59;3.78;;;1.67;;
59040;SDS011;44825;53.200;6.448;2022-08-11T09:56:35;4.25;;;1.65;;
59040;SDS011;44825;53.200;6.448;2022-08-11T09:59:23;3.75;;;1.75;;
59040;SDS011;44825;53.200;6.448;2022-08-11T10:01:51;3.85;;;1.30;;
59040;SDS011;44825;53.200;6.448;2022-08-11T10:04:24;3.78;;;1.30;;
59040;SDS011;44825;53.200;6.448;2022-08-11T10:06:57;4.22;;;1.50;;
59040;SDS011;44825;53.200;6.448;2022-08-11T10:09:27;5.05;;;1.55;;
59040;SDS011;44825;53.200;6.448;2022-08-11T10:12:05;3.42;;;1.50;;
59040;SDS011;44825;53.200;6.448;2022-08-11T10:14:37;6.05;;;1.77;;
59040;SDS011;44825;53.200;6.448;2022-08-11T10:17:27;4.53;;;1.75;;
59040;SDS011;44825;53.200;6.448;2022-08-11T10:19:58;5.50;;;1.55;;
59040;SDS011;44825;53.200;6.448;2022-08-11T10:22:29;4.05;;;1.38;;
59040;SDS011;44825;53.200;6.448;2022-08-11T10:25:15;6.25;;;1.42;;
59040;SDS011;44825;53.200;6.448;2022-08-11T10:28:03;4.70;;;1.52;;
59040;SDS011;44825;53.200;6.448;2022-08-11T10:30:34;2.60;;;1.10;;
59040;SDS011;44825;53.200;6.448;2022-08-11T10:33:30;4.40;;;1.20;;
59040;SDS011;44825;53.200;6.448;2022-08-11T10:36:16;2.58;;;1.20;;
59040;SDS011;44825;53.200;6.448;2022-08-11T10:38:45;4.65;;;1.35;;
59040;SDS011;44825;53.200;6.448;2022-08-11T10:41:16;4.40;;;1.10;;
59040;SDS011;44825;53.200;6.448;2022-08-11T10:44:03;2.97;;;1.20;;
59040;SDS011;44825;53.200;6.448;2022-08-11T10:46:33;3.10;;;1.55;;
59040;SDS011;44825;53.200;6.448;2022-08-11T10:49:19;3.40;;;1.17;;
59040;SDS011;44825;53.200;6.448;2022-08-11T10:51:47;6.78;;;1.60;;
59040;SDS011;44825;53.200;6.448;2022-08-11T10:54:33;6.28;;;1.40;;
59040;SDS011;44825;53.200;6.448;2022-08-11T10:57:19;4.18;;;1.42;;
59040;SDS011;44825;53.200;6.448;2022-08-11T11:00:08;3.97;;;1.55;;
59040;SDS011;44825;53.200;6.448;2022-08-11T11:02:39;3.97;;;1.40;;
59040;SDS011;44825;53.200;6.448;2022-08-11T11:05:09;4.05;;;1.20;;
59040;SDS011;44825;53.200;6.448;2022-08-11T11:07:45;3.58;;;1.00;;
59040;SDS011;44825;53.200;6.448;2022-08-11T11:10:18;2.85;;;1.20;;
59040;SDS011;44825;53.200;6.448;2022-08-11T11:12:50;4.28;;;1.38;;
59040;SDS011;44825;53.200;6.448;2022-08-11T11:15:40;2.95;;;1.23;;
59040;SDS011;44825;53.200;6.448;2022-08-11T11:18:30;2.58;;;1.00;;
59040;SDS011;44825;53.200;6.448;2022-08-11T11:21:02;1.98;;;1.10;;
59040;SDS011;44825;53.200;6.448;2022-08-11T11:23:33;3.13;;;0.98;;
59040;SDS011;44825;53.200;6.448;2022-08-11T11:26:07;5.70;;;1.30;;
59040;SDS011;44825;53.200;6.448;2022-08-11T11:28:48;2.67;;;1.10;;
59040;SDS011;44825;53.200;6.448;2022-08-11T11:31:58;3.42;;;1.30;;
59040;SDS011;44825;53.200;6.448;2022-08-11T11:37:51;3.10;;;0.95;;
59040;SDS011;44825;53.200;6.448;2022-08-11T11:40:20;2.55;;;1.10;;
59040;SDS011;44825;53.200;6.448;2022-08-11T11:42:49;3.60;;;1.35;;
59040;SDS011;44825;53.200;6.448;2022-08-11T11:45:19;3.20;;;1.23;;
59040;SDS011;44825;53.200;6.448;2022-08-11T11:47:51;8.35;;;1.35;;
59040;SDS011;44825;53.200;6.448;2022-08-11T11:50:23;2.55;;;1.15;;
59040;SDS011;44825;53.200;6.448;2022-08-11T11:52:52;4.43;;;1.33;;
59040;SDS011;44825;53.200;6.448;2022-08-11T11:55:21;3.50;;;1.33;;
59040;SDS011;44825;53.200;6.448;2022-08-11T11:57:51;2.58;;;1.30;;
59040;SDS011;44825;53.200;6.448;2022-08-11T12:00:36;4.97;;;1.30;;
59040;SDS011;44825;53.200;6.448;2022-08-11T12:03:24;2.85;;;1.00;;
59040;SDS011;44825;53.200;6.448;2022-08-11T12:05:53;4.68;;;1.58;;
59040;SDS011;44825;53.200;6.448;2022-08-11T12:08:21;4.00;;;1.70;;
59040;SDS011;44825;53.200;6.448;2022-08-11T12:10:50;6.10;;;1.27;;
59040;SDS011;44825;53.200;6.448;2022-08-11T12:13:41;3.85;;;1.65;;
59040;SDS011;44825;53.200;6.448;2022-08-11T12:16:09;5.00;;;1.58;;
59040;SDS011;44825;53.200;6.448;2022-08-11T12:18:40;3.45;;;1.38;;
59040;SDS011;44825;53.200;6.448;2022-08-11T12:21:09;5.68;;;1.45;;
59040;SDS011;44825;53.200;6.448;2022-08-11T12:23:37;3.92;;;1.63;;
59040;SDS011;44825;53.200;6.448;2022-08-11T12:26:23;4.35;;;1.60;;
59040;SDS011;44825;53.200;6.448;2022-08-11T12:29:10;3.78;;;1.40;;
59040;SDS011;44825;53.200;6.448;2022-08-11T12:31:38;4.97;;;1.33;;
59040;SDS011;44825;53.200;6.448;2022-08-11T12:34:09;4.38;;;1.30;;
59040;SDS011;44825;53.200;6.448;2022-08-11T12:36:39;5.20;;;1.58;;
59040;SDS011;44825;53.200;6.448;2022-08-11T12:39:09;5.38;;;1.30;;
59040;SDS011;44825;53.200;6.448;2022-08-11T12:41:39;2.92;;;1.27;;
59040;SDS011;44825;53.200;6.448;2022-08-11T12:44:26;5.93;;;1.30;;
59040;SDS011;44825;53.200;6.448;2022-08-11T12:47:12;2.70;;;1.15;;
59040;SDS011;44825;53.200;6.448;2022-08-11T12:49:46;7.32;;;1.77;;
59040;SDS011;44825;53.200;6.448;2022-08-11T12:52:33;3.47;;;1.10;;
59040;SDS011;44825;53.200;6.448;2022-08-11T12:55:08;3.95;;;1.17;;
59040;SDS011;44825;53.200;6.448;2022-08-11T12:57:38;3.85;;;1.08;;
59040;SDS011;44825;53.200;6.448;2022-08-11T13:00:25;3.78;;;1.10;;
59040;SDS011;44825;53.200;6.448;2022-08-11T13:03:13;2.83;;;1.20;;
59040;SDS011;44825;53.200;6.448;2022-08-11T13:06:00;3.88;;;1.15;;
59040;SDS011;44825;53.200;6.448;2022-08-11T13:08:30;4.38;;;1.42;;
59040;SDS011;44825;53.200;6.448;2022-08-11T13:11:01;1.90;;;1.00;;
59040;SDS011;44825;53.200;6.448;2022-08-11T13:13:47;3.20;;;1.27;;
59040;SDS011;44825;53.200;6.448;2022-08-11T13:16:16;3.03;;;1.10;;
59040;SDS011;44825;53.200;6.448;2022-08-11T13:18:45;2.60;;;1.20;;
59040;SDS011;44825;53.200;6.448;2022-08-11T13:21:14;6.43;;;1.40;;
59040;SDS011;44825;53.200;6.448;2022-08-11T13:23:42;2.75;;;1.08;;
59040;SDS011;44825;53.200;6.448;2022-08-11T13:26:09;4.43;;;1.23;;
59040;SDS011;44825;53.200;6.448;2022-08-11T13:28:38;1.98;;;0.98;;
59040;SDS011;44825;53.200;6.448;2022-08-11T13:31:06;4.88;;;1.48;;
59040;SDS011;44825;53.200;6.448;2022-08-11T13:33:37;3.78;;;1.23;;
59040;SDS011;44825;53.200;6.448;2022-08-11T13:36:07;4.03;;;1.10;;
59040;SDS011;44825;53.200;6.448;2022-08-11T13:38:36;4.28;;;1.00;;
59040;SDS011;44825;53.200;6.448;2022-08-11T13:41:06;7.53;;;1.50;;
59040;SDS011;44825;53.200;6.448;2022-08-11T13:43:48;3.30;;;0.95;;
59040;SDS011;44825;53.200;6.448;2022-08-11T13:46:17;3.05;;;1.13;;
59040;SDS011;44825;53.200;6.448;2022-08-11T13:48:45;4.10;;;1.13;;
59040;SDS011;44825;53.200;6.448;2022-08-11T13:51:13;5.03;;;1.10;;
59040;SDS011;44825;53.200;6.448;2022-08-11T13:53:59;3.17;;;1.00;;
59040;SDS011;44825;53.200;6.448;2022-08-11T13:56:28;5.20;;;1.15;;
59040;SDS011;44825;53.200;6.448;2022-08-11T13:58:57;2.20;;;0.95;;
59040;SDS011;44825;53.200;6.448;2022-08-11T14:01:27;2.88;;;1.05;;
59040;SDS011;44825;53.200;6.448;2022-08-11T14:04:02;1.77;;;1.02;;
59040;SDS011;44825;53.200;6.448;2022-08-11T14:06:33;6.20;;;1.00;;
59040;SDS011;44825;53.200;6.448;2022-08-11T14:09:05;2.65;;;0.80;;
59040;SDS011;44825;53.200;6.448;2022-08-11T14:11:35;2.13;;;0.85;;
59040;SDS011;44825;53.200;6.448;2022-08-11T14:14:25;3.03;;;1.05;;
59040;SDS011;44825;53.200;6.448;2022-08-11T14:17:00;2.67;;;0.95;;
59040;SDS011;44825;53.200;6.448;2022-08-11T14:19:31;14.18;;;1.48;;
59040;SDS011;44825;53.200;6.448;2022-08-11T14:22:03;4.55;;;0.90;;
59040;SDS011;44825;53.200;6.448;2022-08-11T14:24:33;2.15;;;1.08;;
59040;SDS011;44825;53.200;6.448;2022-08-11T14:27:02;3.10;;;1.17;;
59040;SDS011;44825;53.200;6.448;2022-08-11T14:29:31;3.90;;;1.10;;
59040;SDS011;44825;53.200;6.448;2022-08-11T14:32:04;3.55;;;1.05;;
59040;SDS011;44825;53.200;6.448;2022-08-11T14:34:33;4.32;;;1.25;;
59040;SDS011;44825;53.200;6.448;2022-08-11T14:37:03;3.08;;;1.33;;
59040;SDS011;44825;53.200;6.448;2022-08-11T14:39:34;4.93;;;1.10;;
59040;SDS011;44825;53.200;6.448;2022-08-11T14:42:06;2.22;;;1.05;;
59040;SDS011;44825;53.200;6.448;2022-08-11T14:44:53;7.05;;;1.35;;
59040;SDS011;44825;53.200;6.448;2022-08-11T14:47:41;4.68;;;1.00;;
59040;SDS011;44825;53.200;6.448;2022-08-11T14:50:12;2.70;;;1.00;;
59040;SDS011;44825;53.200;6.448;2022-08-11T14:52:44;3.65;;;1.13;;
59040;SDS011;44825;53.200;6.448;2022-08-11T14:55:16;4.93;;;1.48;;
59040;SDS011;44825;53.200;6.448;2022-08-11T14:58:02;4.13;;;1.30;;
59040;SDS011;44825;53.200;6.448;2022-08-11T15:00:31;6.45;;;1.30;;
59040;SDS011;44825;53.200;6.448;2022-08-11T15:03:00;6.05;;;1.25;;
59040;SDS011;44825;53.200;6.448;2022-08-11T15:05:34;6.70;;;1.40;;
59040;SDS011;44825;53.200;6.448;2022-08-11T15:08:03;6.10;;;1.40;;
59040;SDS011;44825;53.200;6.448;2022-08-11T15:10:36;5.18;;;1.27;;
59040;SDS011;44825;53.200;6.448;2022-08-11T15:13:04;2.22;;;1.13;;
59040;SDS011;44825;53.200;6.448;2022-08-11T15:15:32;3.60;;;1.30;;
59040;SDS011;44825;53.200;6.448;2022-08-11T15:18:18;7.60;;;1.23;;
59040;SDS011;44825;53.200;6.448;2022-08-11T15:20:48;2.20;;;1.10;;
59040;SDS011;44825;53.200;6.448;2022-08-11T15:23:34;3.95;;;1.27;;
59040;SDS011;44825;53.200;6.448;2022-08-11T15:26:22;3.85;;;1.35;;
59040;SDS011;44825;53.200;6.448;2022-08-11T15:29:10;2.97;;;1.20;;
59040;SDS011;44825;53.200;6.448;2022-08-11T15:31:57;4.18;;;1.38;;
59040;SDS011;44825;53.200;6.448;2022-08-11T15:34:42;4.47;;;1.50;;
59040;SDS011;44825;53.200;6.448;2022-08-11T15:37:30;6.47;;;1.40;;
59040;SDS011;44825;53.200;6.448;2022-08-11T15:40:02;4.00;;;1.33;;
59040;SDS011;44825;53.200;6.448;2022-08-11T15:42:57;4.75;;;1.50;;
59040;SDS011;44825;53.200;6.448;2022-08-11T15:45:47;3.15;;;1.25;;
59040;SDS011;44825;53.200;6.448;2022-08-11T15:48:20;5.07;;;1.23;;
59040;SDS011;44825;53.200;6.448;2022-08-11T15:50:55;2.80;;;1.25;;
59040;SDS011;44825;53.200;6.448;2022-08-11T15:53:30;7.80;;;1.20;;
59040;SDS011;44825;53.200;6.448;2022-08-11T15:56:04;6.32;;;1.20;;
59040;SDS011;44825;53.200;6.448;2022-08-11T15:58:35;4.50;;;1.20;;
59040;SDS011;44825;53.200;6.448;2022-08-11T16:01:24;8.70;;;1.63;;
59040;SDS011;44825;53.200;6.448;2022-08-11T16:04:13;5.07;;;1.23;;
59040;SDS011;44825;53.200;6.448;2022-08-11T16:06:44;5.00;;;1.60;;
59040;SDS011;44825;53.200;6.448;2022-08-11T16:09:17;4.85;;;1.48;;
59040;SDS011;44825;53.200;6.448;2022-08-11T16:11:49;3.60;;;1.33;;
59040;SDS011;44825;53.200;6.448;2022-08-11T16:14:19;2.90;;;1.20;;
59040;SDS011;44825;53.200;6.448;2022-08-11T16:17:06;3.97;;;1.40;;
59040;SDS011;44825;53.200;6.448;2022-08-11T16:19:38;2.50;;;1.35;;
59040;SDS011;44825;53.200;6.448;2022-08-11T16:22:08;4.30;;;1.65;;
59040;SDS011;44825;53.200;6.448;2022-08-11T16:24:39;7.45;;;1.70;;
59040;SDS011;44825;53.200;6.448;2022-08-11T16:27:10;4.72;;;1.30;;
59040;SDS011;44825;53.200;6.448;2022-08-11T16:29:43;4.38;;;1.55;;
59040;SDS011;44825;53.200;6.448;2022-08-11T16:32:13;4.70;;;1.40;;
59040;SDS011;44825;53.200;6.448;2022-08-11T16:34:46;4.97;;;1.17;;
59040;SDS011;44825;53.200;6.448;2022-08-11T16:37:35;4.97;;;1.30;;
59040;SDS011;44825;53.200;6.448;2022-08-11T16:40:21;4.13;;;1.17;;
59040;SDS011;44825;53.200;6.448;2022-08-11T16:42:50;5.65;;;1.33;;
59040;SDS011;44825;53.200;6.448;2022-08-11T16:45:41;2.72;;;1.35;;
59040;SDS011;44825;53.200;6.448;2022-08-11T16:48:29;3.65;;;1.42;;
59040;SDS011;44825;53.200;6.448;2022-08-11T16:50:58;5.40;;;1.35;;